• Join FlightAware (Why Join?)
  • Login
  • US Flag 
05:15AM EDT


 

Airport Tracker/Info


-or-


 

Live Flight TrackerFlight Track Log ✈ EGF4218 ✈ 30-Apr-2013 ✈ KORD - KTUL

Flight Track Log - Related Links

Times and Time Zones

All times are in EDT time to prevent confusion due to time zone crossing. See the EGF4218 flight status page for this flight to view local times or setup timezone preferences in your user account.

Time Position Orientation Groundspeed Altitude Reporting Facility
EDT Latitude Longitude Course Direction KTS MPH feet Rate Location/Type
10:44AM 41.9667 -87.9500 203° Southwest 170 196 1,400  Level Chicago TRACON
10:45AM 41.9333 -87.9833 217° Southwest 185 213 3,700 1,740 Climbing Chicago TRACON
10:46AM 41.7762 -88.2291 203° Southwest  Level Estimated
10:47AM 41.7075 -88.3361 197° South  Level Estimated
10:47AM 41.8175 -87.9889 182° South 242 278 6,400  Level Chicago Center
10:48AM 41.6136 -88.2722 153° Southeast  Level FlightAware Approximate
10:48AM 41.7536 -88.0203 200° South 246 283 8,600  Level Chicago Center
10:49AM 41.5459 -88.3801 203° Southwest  Level Estimated
10:49AM 41.6856 -88.0544 201° Southwest 261 300 10,500  Level Chicago Center
10:50AM 41.6125 -88.0869 198° South 279 321 12,100 1,500 Climbing Chicago Center
10:51AM 41.5353 -88.1219 199° South 295 339 13,600 1,380 Climbing Chicago Center
10:52AM 41.4392 -88.1656 199° South 312 359 15,000 1,140 Climbing Chicago Center
10:53AM 41.3536 -88.2039 199° South 334 384 16,000 960 Climbing Chicago Center
10:54AM 41.2628 -88.2447 199° South 347 399 17,100 1,020 Climbing Chicago Center
10:55AM 41.1692 -88.2875 199° South 355 409 18,200 1,080 Climbing Chicago Center
10:56AM 41.0531 -88.3394 199° South 367 422 19,400 1,080 Climbing Chicago Center
10:57AM 40.9533 -88.3844 199° South 377 434 20,500 1,020 Climbing Chicago Center
10:58AM 40.8517 -88.4311 199° South 386 444 21,500 960 Climbing Chicago Center
10:59AM 40.7467 -88.4761 198° South 396 456 22,500 1,080 Climbing Chicago Center
11:00AM 40.6408 -88.5214 198° South 401 461 23,800 1,200 Climbing Chicago Center
11:01AM 40.5508 -88.5972 213° Southwest 393 452 25,000 1,260 Climbing Chicago Center
11:02AM 40.4689 -88.7333 232° Southwest 392 451 26,400 1,200 Climbing Chicago Center
11:03AM 40.4053 -88.8367 231° Southwest 392 451 27,600 1,140 Climbing Chicago Center
11:04AM 40.3361 -88.9478 231° Southwest 392 451 28,800 1,080 Climbing Chicago Center
11:05AM 40.2672 -89.0556 230° Southwest 388 447 29,900 540 Climbing Chicago Center
11:06AM 40.1956 -89.1681 230° Southwest 400 460 30,000 180 Climbing Chicago Center
11:07AM 40.1172 -89.2875 229° Southwest 419 482 30,300 660 Climbing Kansas City Center
11:08AM 40.0397 -89.4097 230° Southwest 431 496 31,300 780 Climbing Kansas City Center
11:09AM 39.9617 -89.5294 230° Southwest 431 496 32,000 300 Climbing Kansas City Center
11:10AM 39.8819 -89.6517 230° Southwest 437 503 32,000  Level Kansas City Center
11:11AM 39.8000 -89.7786 230° Southwest 450 518 32,000  Level Kansas City Center
11:12AM 39.7103 -89.9192 230° Southwest 450 518 32,000  Level Kansas City Center
11:13AM 39.6308 -90.0417 230° Southwest 448 516 32,000  Level Kansas City Center
11:14AM 39.5492 -90.1647 229° Southwest 449 517 32,000  Level Kansas City Center
11:15AM 39.4683 -90.2869 229° Southwest 450 518 32,000  Level Kansas City Center
11:16AM 39.3869 -90.4108 230° Southwest 452 520 32,000  Level Kansas City Center
11:18AM 39.2889 -90.5586 229° Southwest 454 522 32,000  Level Kansas City Center
11:19AM 39.2075 -90.6817 230° Southwest 454 522 32,000  Level Kansas City Center
11:20AM 39.1264 -90.8019 229° Southwest 451 519 32,000 300 Level Kansas City Center
11:21AM 39.0447 -90.9244 229° Southwest 454 522 32,700 720 Climbing Kansas City Center
11:22AM 38.9656 -91.0422 229° Southwest 444 511 33,600 600 Climbing Kansas City Center
11:23AM 38.8719 -91.1803 229° Southwest 433 498 34,000 180 Climbing Kansas City Center
11:24AM 38.8025 -91.3125 236° Southwest 444 511 34,000  Level Kansas City Center
11:25AM 38.7353 -91.4486 238° Southwest 453 521 34,000  Level Kansas City Center
11:26AM 38.6681 -91.5794 237° Southwest 456 525 34,000  Level Kansas City Center
11:27AM 38.5833 -91.7397 236° Southwest 454 522 34,000  Level Kansas City Center
11:28AM 38.5136 -91.8728 236° Southwest 451 519 34,000  Level Kansas City Center
11:29AM 38.4442 -92.0056 236° Southwest 449 517 34,000  Level Kansas City Center
11:30AM 38.3747 -92.1358 236° Southwest 445 512 34,000  Level Kansas City Center
11:31AM 38.3044 -92.2667 236° Southwest 447 514 34,000  Level Kansas City Center
11:32AM 38.2350 -92.3969 236° Southwest 447 514 34,000  Level Kansas City Center
11:33AM 38.1636 -92.5322 236° Southwest 449 517 34,000  Level Kansas City Center
11:34AM 38.0781 -92.6925 236° Southwest 456 525 34,000  Level Kansas City Center
11:35AM 38.0103 -92.8178 236° Southwest 457 526 34,000  Level Kansas City Center
11:36AM 37.9375 -92.9500 235° Southwest 458 527 34,000  Level Kansas City Center
11:37AM 37.8661 -93.0808 235° Southwest 454 522 34,000  Level Kansas City Center
11:38AM 37.7833 -93.2364 236° Southwest 447 514 34,000  Level Kansas City Center
11:39AM 37.7117 -93.3667 235° Southwest 449 517 34,000  Level Kansas City Center
11:40AM 37.6392 -93.4986 235° Southwest 455 524 34,000  Level Kansas City Center
11:41AM 37.5667 -93.6275 235° Southwest 451 519 34,000  Level Kansas City Center
11:42AM 37.4956 -93.7561 235° Southwest 448 516 34,000  Level Kansas City Center
11:43AM 37.4239 -93.8836 235° Southwest 446 513 34,000  Level Kansas City Center
11:44AM 37.3389 -94.0381 235° Southwest 446 513 34,000 -300 Level Kansas City Center
11:45AM 37.2672 -94.1661 235° Southwest 446 513 33,500 -1,020 Descending Kansas City Center
11:46AM 37.1958 -94.2931 235° Southwest 446 513 31,900 -1,500 Descending Kansas City Center
11:47AM 37.1219 -94.4172 233° Southwest 444 511 30,400 -1,500 Descending Kansas City Center
11:49AM 37.0489 -94.5464 235° Southwest 449 517 28,800 -1,680 Descending Kansas City Center
11:50AM 36.9764 -94.6739 235° Southwest 449 517 27,000 -1,860 Descending Kansas City Center
11:51AM 36.9069 -94.7997 235° Southwest 445 512 25,000 -2,220 Descending Kansas City Center
11:52AM 36.8206 -94.9525 235° Southwest 447 514 22,500 -2,220 Descending Kansas City Center
11:52AM 36.7706 -95.0392 234° Southwest 439 505 21,100 -1,980 Descending Kansas City Center
11:53AM 36.7522 -95.0719 235° Southwest 433 498 20,500 -2,160 Descending Kansas City Center
11:53AM 36.7181 -95.1300 234° Southwest 413 475 19,400 -2,040 Descending Kansas City Center
11:54AM 36.6856 -95.1853 234° Southwest 414 476 18,400 -2,340 Descending Kansas City Center
11:54AM 36.6600 -95.2319 236° Southwest 392 451 17,300 -2,520 Descending Kansas City Center
11:55AM 36.6175 -95.2844 225° Southwest 385 443 15,800 -2,520 Descending Kansas City Center
11:55AM 36.5864 -95.3231 225° Southwest 366 421 14,800 -2,280 Descending Kansas City Center
11:56AM 36.5453 -95.3703 223° Southwest 366 421 13,500 -2,220 Descending Kansas City Center
11:56AM 36.5231 -95.4122 237° Southwest 349 402 12,600 -2,460 Descending Kansas City Center
11:57AM 36.4903 -95.4867 241° Southwest 335 386 11,000 -2,040 Descending Kansas City Center
11:57AM 36.4758 -95.5175 240° Southwest 324 373 10,600 -1,200 Descending Kansas City Center
11:58AM 36.4511 -95.5789 243° Southwest 314 361 9,800 -1,560 Descending Kansas City Center
11:59AM 36.4111 -95.6644 240° Southwest 293 337 7,900 -1,680 Descending Kansas City Center
12:00PM 36.3747 -95.7458 241° Southwest 276 318 6,400 -1,500 Descending Kansas City Center